sensor_id;sensor_type;location;lat;lon;timestamp;pressure;altitude;pressure_sealevel;temperature;humidity
13015;BME280;6573;57.696;11.950;2023-02-02T00:01:43;100401.84;;;3.98;100.00
13015;BME280;6573;57.696;11.950;2023-02-02T00:04:15;100396.38;;;3.82;100.00
13015;BME280;6573;57.696;11.950;2023-02-02T00:06:43;100402.03;;;4.10;100.00
13015;BME280;6573;57.696;11.950;2023-02-02T00:09:16;100412.25;;;3.98;100.00
13015;BME280;6573;57.696;11.950;2023-02-02T00:11:46;100408.59;;;3.86;100.00
13015;BME280;6573;57.696;11.950;2023-02-02T00:14:14;100417.31;;;3.88;100.00
13015;BME280;6573;57.696;11.950;2023-02-02T00:16:45;100414.56;;;3.81;100.00
13015;BME280;6573;57.696;11.950;2023-02-02T00:19:15;100421.41;;;3.74;100.00
13015;BME280;6573;57.696;11.950;2023-02-02T00:21:44;100432.56;;;3.70;100.00
13015;BME280;6573;57.696;11.950;2023-02-02T00:24:15;100415.28;;;3.72;100.00
13015;BME280;6573;57.696;11.950;2023-02-02T00:26:46;100431.00;;;3.78;100.00
13015;BME280;6573;57.696;11.950;2023-02-02T00:29:17;100439.69;;;3.80;100.00
13015;BME280;6573;57.696;11.950;2023-02-02T00:31:45;100435.91;;;3.63;100.00
13015;BME280;6573;57.696;11.950;2023-02-02T00:34:14;100452.50;;;3.70;100.00
13015;BME280;6573;57.696;11.950;2023-02-02T00:36:44;100454.78;;;3.53;100.00
13015;BME280;6573;57.696;11.950;2023-02-02T00:39:16;100452.09;;;3.49;100.00
13015;BME280;6573;57.696;11.950;2023-02-02T00:41:45;100465.34;;;3.62;100.00
13015;BME280;6573;57.696;11.950;2023-02-02T00:44:14;100458.41;;;3.61;100.00
13015;BME280;6573;57.696;11.950;2023-02-02T00:47:00;100480.19;;;3.66;100.00
13015;BME280;6573;57.696;11.950;2023-02-02T00:49:29;100483.63;;;3.64;100.00
13015;BME280;6573;57.696;11.950;2023-02-02T00:51:57;100487.13;;;3.66;100.00
13015;BME280;6573;57.696;11.950;2023-02-02T00:54:28;100486.28;;;3.68;100.00
13015;BME280;6573;57.696;11.950;2023-02-02T00:56:57;100489.63;;;3.61;100.00
13015;BME280;6573;57.696;11.950;2023-02-02T00:59:25;100488.66;;;3.56;100.00
13015;BME280;6573;57.696;11.950;2023-02-02T01:01:54;100501.59;;;3.53;100.00
13015;BME280;6573;57.696;11.950;2023-02-02T01:04:25;100503.22;;;3.48;100.00
13015;BME280;6573;57.696;11.950;2023-02-02T01:06:54;100510.28;;;3.55;100.00
13015;BME280;6573;57.696;11.950;2023-02-02T01:09:26;100500.63;;;3.48;100.00
13015;BME280;6573;57.696;11.950;2023-02-02T01:11:55;100532.94;;;3.59;100.00
13015;BME280;6573;57.696;11.950;2023-02-02T01:14:24;100531.09;;;3.55;100.00
13015;BME280;6573;57.696;11.950;2023-02-02T01:16:52;100546.91;;;3.64;100.00
13015;BME280;6573;57.696;11.950;2023-02-02T01:19:26;100545.31;;;3.72;100.00
13015;BME280;6573;57.696;11.950;2023-02-02T01:21:57;100554.91;;;3.73;100.00
13015;BME280;6573;57.696;11.950;2023-02-02T01:24:30;100555.69;;;3.69;100.00
13015;BME280;6573;57.696;11.950;2023-02-02T01:26:59;100564.06;;;3.56;100.00
13015;BME280;6573;57.696;11.950;2023-02-02T01:29:28;100571.81;;;3.53;100.00
13015;BME280;6573;57.696;11.950;2023-02-02T01:31:57;100580.56;;;3.57;100.00
13015;BME280;6573;57.696;11.950;2023-02-02T01:34:25;100576.34;;;3.63;100.00
13015;BME280;6573;57.696;11.950;2023-02-02T01:36:53;100590.19;;;3.62;100.00
13015;BME280;6573;57.696;11.950;2023-02-02T01:39:22;100599.13;;;3.73;100.00
13015;BME280;6573;57.696;11.950;2023-02-02T01:41:52;100598.97;;;3.67;100.00
13015;BME280;6573;57.696;11.950;2023-02-02T01:44:59;100598.97;;;3.67;100.00
13015;BME280;6573;57.696;11.950;2023-02-02T01:47:32;100610.50;;;3.78;100.00
13015;BME280;6573;57.696;11.950;2023-02-02T01:50:03;100614.09;;;3.85;100.00
13015;BME280;6573;57.696;11.950;2023-02-02T01:52:33;100613.31;;;3.89;100.00
13015;BME280;6573;57.696;11.950;2023-02-02T01:55:06;100620.91;;;3.78;100.00
13015;BME280;6573;57.696;11.950;2023-02-02T01:57:38;100576.34;;;3.63;100.00
13015;BME280;6573;57.696;11.950;2023-02-02T02:00:11;100628.53;;;3.69;100.00
13015;BME280;6573;57.696;11.950;2023-02-02T02:02:43;100638.69;;;3.60;100.00
13015;BME280;6573;57.696;11.950;2023-02-02T02:05:16;100649.25;;;3.66;100.00
13015;BME280;6573;57.696;11.950;2023-02-02T02:07:48;100655.91;;;3.55;100.00
13015;BME280;6573;57.696;11.950;2023-02-02T02:10:18;100668.00;;;3.53;100.00
13015;BME280;6573;57.696;11.950;2023-02-02T02:12:48;100681.56;;;3.40;100.00
13015;BME280;6573;57.696;11.950;2023-02-02T02:15:17;100677.75;;;3.26;100.00
13015;BME280;6573;57.696;11.950;2023-02-02T02:18:10;100691.97;;;3.40;100.00
13015;BME280;6573;57.696;11.950;2023-02-02T02:21:12;100695.19;;;3.30;100.00
13015;BME280;6573;57.696;11.950;2023-02-02T02:28:00;100721.03;;;3.24;100.00
13015;BME280;6573;57.696;11.950;2023-02-02T02:33:46;100731.44;;;3.24;100.00
13015;BME280;6573;57.696;11.950;2023-02-02T02:36:18;100741.63;;;3.15;100.00
13015;BME280;6573;57.696;11.950;2023-02-02T02:39:01;100739.34;;;2.96;100.00
13015;BME280;6573;57.696;11.950;2023-02-02T02:41:35;100748.25;;;3.04;100.00
13015;BME280;6573;57.696;11.950;2023-02-02T02:44:08;100750.94;;;3.07;100.00
13015;BME280;6573;57.696;11.950;2023-02-02T02:46:38;100754.13;;;2.97;100.00
13015;BME280;6573;57.696;11.950;2023-02-02T02:49:09;100758.31;;;2.92;100.00
13015;BME280;6573;57.696;11.950;2023-02-02T02:51:41;100749.03;;;3.01;100.00
13015;BME280;6573;57.696;11.950;2023-02-02T02:54:15;100754.16;;;2.98;100.00
13015;BME280;6573;57.696;11.950;2023-02-02T02:56:55;100758.41;;;2.95;100.00
13015;BME280;6573;57.696;11.950;2023-02-02T02:59:36;100772.41;;;3.00;100.00
13015;BME280;6573;57.696;11.950;2023-02-02T03:02:23;100778.22;;;2.91;100.00
13015;BME280;6573;57.696;11.950;2023-02-02T03:05:06;100784.19;;;2.89;100.00
13015;BME280;6573;57.696;11.950;2023-02-02T03:07:41;100780.78;;;2.90;100.00
13015;BME280;6573;57.696;11.950;2023-02-02T03:10:12;100784.28;;;2.92;100.00
13015;BME280;6573;57.696;11.950;2023-02-02T03:12:43;100798.09;;;2.91;100.00
13015;BME280;6573;57.696;11.950;2023-02-02T03:15:13;100789.31;;;2.86;100.00
13015;BME280;6573;57.696;11.950;2023-02-02T03:17:42;100803.16;;;2.85;100.00
13015;BME280;6573;57.696;11.950;2023-02-02T03:20:14;100799.53;;;2.80;100.00
13015;BME280;6573;57.696;11.950;2023-02-02T03:22:42;100813.41;;;2.80;100.00
13015;BME280;6573;57.696;11.950;2023-02-02T03:25:11;100814.28;;;2.81;100.00
13015;BME280;6573;57.696;11.950;2023-02-02T03:27:39;100825.34;;;2.74;100.00
13015;BME280;6573;57.696;11.950;2023-02-02T03:30:11;100825.53;;;2.80;100.00
13015;BME280;6573;57.696;11.950;2023-02-02T03:32:40;100832.56;;;2.84;100.00
13015;BME280;6573;57.696;11.950;2023-02-02T03:35:09;100826.66;;;2.59;100.00
13015;BME280;6573;57.696;11.950;2023-02-02T03:37:39;100842.34;;;2.63;100.00
13015;BME280;6573;57.696;11.950;2023-02-02T03:40:08;100854.59;;;2.68;100.00
13015;BME280;6573;57.696;11.950;2023-02-02T03:42:39;100863.38;;;2.72;100.00
13015;BME280;6573;57.696;11.950;2023-02-02T03:45:09;100861.53;;;2.68;100.00
13015;BME280;6573;57.696;11.950;2023-02-02T03:47:38;100865.63;;;2.59;100.00
13015;BME280;6573;57.696;11.950;2023-02-02T03:50:07;100883.88;;;2.63;100.00
13015;BME280;6573;57.696;11.950;2023-02-02T03:52:36;100876.44;;;2.46;100.00
13015;BME280;6573;57.696;11.950;2023-02-02T03:55:06;100887.47;;;2.39;100.00
13015;BME280;6573;57.696;11.950;2023-02-02T03:57:35;100895.06;;;2.33;100.00
13015;BME280;6573;57.696;11.950;2023-02-02T04:00:04;100891.38;;;2.25;100.00
13015;BME280;6573;57.696;11.950;2023-02-02T04:02:33;100903.72;;;2.32;100.00
13015;BME280;6573;57.696;11.950;2023-02-02T04:05:02;100900.25;;;2.33;100.00
13015;BME280;6573;57.696;11.950;2023-02-02T04:07:30;100900.38;;;2.36;100.00
13015;BME280;6573;57.696;11.950;2023-02-02T04:09:59;100909.81;;;2.34;100.00
13015;BME280;6573;57.696;11.950;2023-02-02T04:12:28;100907.84;;;2.26;100.00
13015;BME280;6573;57.696;11.950;2023-02-02T04:14:57;100923.47;;;2.29;100.00
13015;BME280;6573;57.696;11.950;2023-02-02T04:17:25;100917.41;;;2.28;100.00
13015;BME280;6573;57.696;11.950;2023-02-02T04:19:56;100922.41;;;2.22;100.00
13015;BME280;6573;57.696;11.950;2023-02-02T04:22:25;100926.47;;;2.14;100.00
13015;BME280;6573;57.696;11.950;2023-02-02T04:24:54;100923.97;;;2.17;100.00
13015;BME280;6573;57.696;11.950;2023-02-02T04:27:23;100937.88;;;2.19;100.00
13015;BME280;6573;57.696;11.950;2023-02-02T04:29:55;100937.59;;;2.10;100.00
13015;BME280;6573;57.696;11.950;2023-02-02T04:32:24;100937.38;;;2.04;100.00
13015;BME280;6573;57.696;11.950;2023-02-02T04:34:56;100936.44;;;2.02;100.00
13015;BME280;6573;57.696;11.950;2023-02-02T04:37:25;100955.34;;;2.23;100.00
13015;BME280;6573;57.696;11.950;2023-02-02T04:39:53;100952.53;;;2.17;100.00
13015;BME280;6573;57.696;11.950;2023-02-02T04:42:24;100966.69;;;2.27;100.00
13015;BME280;6573;57.696;11.950;2023-02-02T04:44:55;100971.63;;;2.19;100.00
13015;BME280;6573;57.696;11.950;2023-02-02T04:47:23;100965.72;;;2.23;100.00
13015;BME280;6573;57.696;11.950;2023-02-02T04:49:51;100977.06;;;2.27;100.00
13015;BME280;6573;57.696;11.950;2023-02-02T04:52:19;100987.44;;;2.27;100.00
13015;BME280;6573;57.696;11.950;2023-02-02T04:54:48;100986.75;;;2.32;100.00
13015;BME280;6573;57.696;11.950;2023-02-02T04:57:16;100990.19;;;2.31;100.00
13015;BME280;6573;57.696;11.950;2023-02-02T04:59:45;100991.84;;;2.29;100.00
13015;BME280;6573;57.696;11.950;2023-02-02T05:02:14;101005.84;;;2.34;100.00
13015;BME280;6573;57.696;11.950;2023-02-02T05:04:43;100996.84;;;2.23;100.00
13015;BME280;6573;57.696;11.950;2023-02-02T05:07:13;101012.50;;;2.26;100.00
13015;BME280;6573;57.696;11.950;2023-02-02T05:09:41;101010.53;;;2.19;100.00
13015;BME280;6573;57.696;11.950;2023-02-02T05:12:09;101030.47;;;2.20;100.00
13015;BME280;6573;57.696;11.950;2023-02-02T05:14:38;101026.22;;;2.22;100.00
13015;BME280;6573;57.696;11.950;2023-02-02T05:17:06;101040.59;;;2.13;100.00
13015;BME280;6573;57.696;11.950;2023-02-02T05:19:36;101027.28;;;2.04;100.00
13015;BME280;6573;57.696;11.950;2023-02-02T05:22:04;101044.66;;;2.06;100.00
13015;BME280;6573;57.696;11.950;2023-02-02T05:24:33;101042.69;;;1.99;100.00
13015;BME280;6573;57.696;11.950;2023-02-02T05:27:01;101047.09;;;2.02;100.00
13015;BME280;6573;57.696;11.950;2023-02-02T05:29:30;101039.41;;;2.03;100.00
13015;BME280;6573;57.696;11.950;2023-02-02T05:31:58;101053.06;;;1.99;100.00
13015;BME280;6573;57.696;11.950;2023-02-02T05:34:27;101063.34;;;1.96;100.00
13015;BME280;6573;57.696;11.950;2023-02-02T05:36:57;101073.28;;;1.84;100.00
13015;BME280;6573;57.696;11.950;2023-02-02T05:39:27;101073.28;;;1.84;100.00
13015;BME280;6573;57.696;11.950;2023-02-02T05:41:56;101075.38;;;1.94;100.00
13015;BME280;6573;57.696;11.950;2023-02-02T05:44:25;101080.25;;;1.85;100.00
13015;BME280;6573;57.696;11.950;2023-02-02T05:46:59;101087.69;;;1.76;100.00
13015;BME280;6573;57.696;11.950;2023-02-02T05:49:28;101077.97;;;1.70;100.00
13015;BME280;6573;57.696;11.950;2023-02-02T05:52:00;101099.13;;;1.81;100.00
13015;BME280;6573;57.696;11.950;2023-02-02T05:54:28;101102.53;;;1.80;100.00
13015;BME280;6573;57.696;11.950;2023-02-02T05:56:58;101105.00;;;1.77;100.00
13015;BME280;6573;57.696;11.950;2023-02-02T05:59:29;101115.47;;;1.78;100.00
13015;BME280;6573;57.696;11.950;2023-02-02T06:01:57;101119.63;;;1.75;100.00
13015;BME280;6573;57.696;11.950;2023-02-02T06:04:26;101116.31;;;1.79;100.00
13015;BME280;6573;57.696;11.950;2023-02-02T06:06:54;101132.00;;;1.82;100.00
13015;BME280;6573;57.696;11.950;2023-02-02T06:09:24;101140.50;;;1.78;100.00
13015;BME280;6573;57.696;11.950;2023-02-02T06:11:53;101141.59;;;1.84;100.00
13015;BME280;6573;57.696;11.950;2023-02-02T06:14:21;101145.25;;;1.89;100.00
13015;BME280;6573;57.696;11.950;2023-02-02T06:16:49;101147.69;;;1.85;100.00
13015;BME280;6573;57.696;11.950;2023-02-02T06:19:18;101158.06;;;1.85;100.00
13015;BME280;6573;57.696;11.950;2023-02-02T06:21:47;101161.69;;;1.90;100.00
13015;BME280;6573;57.696;11.950;2023-02-02T06:24:15;101152.88;;;1.85;100.00
13015;BME280;6573;57.696;11.950;2023-02-02T06:26:45;101157.81;;;1.79;100.00
13015;BME280;6573;57.696;11.950;2023-02-02T06:29:14;101168.09;;;1.76;100.00
13015;BME280;6573;57.696;11.950;2023-02-02T06:31:44;101140.03;;;1.66;100.00
13015;BME280;6573;57.696;11.950;2023-02-02T06:34:15;101170.22;;;1.86;100.00
13015;BME280;6573;57.696;11.950;2023-02-02T06:36:43;101172.44;;;1.77;100.00
13015;BME280;6573;57.696;11.950;2023-02-02T06:39:12;101158.47;;;1.73;100.00
13015;BME280;6573;57.696;11.950;2023-02-02T06:41:41;101171.38;;;1.72;100.00
13015;BME280;6573;57.696;11.950;2023-02-02T06:44:13;101183.53;;;1.73;100.00
13015;BME280;6573;57.696;11.950;2023-02-02T06:46:42;101188.84;;;1.76;100.00
13015;BME280;6573;57.696;11.950;2023-02-02T06:49:11;101195.66;;;1.74;100.00
13015;BME280;6573;57.696;11.950;2023-02-02T06:51:39;101202.50;;;1.72;100.00
13015;BME280;6573;57.696;11.950;2023-02-02T06:54:08;101198.72;;;1.64;100.00
13015;BME280;6573;57.696;11.950;2023-02-02T06:56:36;101179.03;;;1.47;100.00
13015;BME280;6573;57.696;11.950;2023-02-02T06:59:04;101224.72;;;1.65;100.00
13015;BME280;6573;57.696;11.950;2023-02-02T07:01:36;101227.94;;;1.60;100.00
13015;BME280;6573;57.696;11.950;2023-02-02T07:04:05;101225.47;;;1.63;100.00
13015;BME280;6573;57.696;11.950;2023-02-02T07:06:33;101230.66;;;1.63;100.00
13015;BME280;6573;57.696;11.950;2023-02-02T07:09:02;101235.53;;;1.55;100.00
13015;BME280;6573;57.696;11.950;2023-02-02T07:11:30;101245.78;;;1.52;100.00
13015;BME280;6573;57.696;11.950;2023-02-02T07:14:10;101243.00;;;1.48;100.00
13015;BME280;6573;57.696;11.950;2023-02-02T07:16:40;101239.09;;;1.37;100.00
13015;BME280;6573;57.696;11.950;2023-02-02T07:19:09;101239.81;;;1.33;100.00
13015;BME280;6573;57.696;11.950;2023-02-02T07:21:37;101248.34;;;1.30;100.00
13015;BME280;6573;57.696;11.950;2023-02-02T07:24:06;101265.00;;;1.37;100.00
13015;BME280;6573;57.696;11.950;2023-02-02T07:26:35;101259.47;;;1.27;100.00
13015;BME280;6573;57.696;11.950;2023-02-02T07:29:04;101261.09;;;1.25;100.00
13015;BME280;6573;57.696;11.950;2023-02-02T07:31:35;101277.03;;;1.35;100.00
13015;BME280;6573;57.696;11.950;2023-02-02T07:34:05;101271.47;;;1.25;100.00
13015;BME280;6573;57.696;11.950;2023-02-02T07:36:34;101270.44;;;1.01;100.00
13015;BME280;6573;57.696;11.950;2023-02-02T07:39:05;101282.84;;;1.08;100.00
13015;BME280;6573;57.696;11.950;2023-02-02T07:41:34;101286.50;;;1.13;100.00
13015;BME280;6573;57.696;11.950;2023-02-02T07:44:04;101290.84;;;1.14;100.00
13015;BME280;6573;57.696;11.950;2023-02-02T07:46:33;101296.13;;;1.16;100.00
13015;BME280;6573;57.696;11.950;2023-02-02T07:49:02;101308.22;;;1.17;100.00
13015;BME280;6573;57.696;11.950;2023-02-02T07:51:33;101295.50;;;1.21;100.00
13015;BME280;6573;57.696;11.950;2023-02-02T07:54:05;101310.78;;;1.15;100.00
13015;BME280;6573;57.696;11.950;2023-02-02T07:56:34;101319.63;;;1.20;100.00
13015;BME280;6573;57.696;11.950;2023-02-02T07:59:05;101309.56;;;1.07;100.00
13015;BME280;6573;57.696;11.950;2023-02-02T08:01:34;101317.97;;;1.22;100.00
13015;BME280;6573;57.696;11.950;2023-02-02T08:04:03;101328.72;;;1.31;100.00
13015;BME280;6573;57.696;11.950;2023-02-02T08:06:35;101331.78;;;1.21;100.00
13015;BME280;6573;57.696;11.950;2023-02-02T08:09:07;101350.72;;;1.20;100.00
13015;BME280;6573;57.696;11.950;2023-02-02T08:11:36;101350.72;;;1.20;100.00
13015;BME280;6573;57.696;11.950;2023-02-02T08:14:05;101361.78;;;1.16;100.00
13015;BME280;6573;57.696;11.950;2023-02-02T08:16:34;101371.44;;;1.20;100.00
13015;BME280;6573;57.696;11.950;2023-02-02T08:19:03;101359.44;;;1.22;100.00
13015;BME280;6573;57.696;11.950;2023-02-02T08:21:33;101374.59;;;1.13;100.00
13015;BME280;6573;57.696;11.950;2023-02-02T08:24:28;101372.81;;;1.12;100.00
13015;BME280;6573;57.696;11.950;2023-02-02T08:27:01;101373.09;;;1.18;100.00
13015;BME280;6573;57.696;11.950;2023-02-02T08:29:30;101385.50;;;1.25;100.00
13015;BME280;6573;57.696;11.950;2023-02-02T08:31:58;101381.81;;;1.20;100.00
13015;BME280;6573;57.696;11.950;2023-02-02T08:34:30;101391.78;;;1.11;100.00
13015;BME280;6573;57.696;11.950;2023-02-02T08:37:04;101386.72;;;1.14;100.00
13015;BME280;6573;57.696;11.950;2023-02-02T08:39:32;101393.28;;;1.06;100.00
13015;BME280;6573;57.696;11.950;2023-02-02T08:42:01;101388.97;;;1.07;100.00
13015;BME280;6573;57.696;11.950;2023-02-02T08:44:29;101377.03;;;1.10;100.00
13015;BME280;6573;57.696;11.950;2023-02-02T08:47:18;101392.94;;;1.18;100.00
13015;BME280;6573;57.696;11.950;2023-02-02T08:49:47;101386.47;;;1.08;100.00
13015;BME280;6573;57.696;11.950;2023-02-02T08:52:17;101408.53;;;1.19;100.00
13015;BME280;6573;57.696;11.950;2023-02-02T08:54:45;101377.75;;;1.06;100.00
13015;BME280;6573;57.696;11.950;2023-02-02T08:57:14;101421.63;;;1.22;100.00
13015;BME280;6573;57.696;11.950;2023-02-02T08:59:42;101431.84;;;1.19;100.00
13015;BME280;6573;57.696;11.950;2023-02-02T09:02:11;101432.00;;;1.22;100.00
13015;BME280;6573;57.696;11.950;2023-02-02T09:04:39;101444.34;;;1.28;100.00
13015;BME280;6573;57.696;11.950;2023-02-02T09:07:14;101447.81;;;1.28;100.00
13015;BME280;6573;57.696;11.950;2023-02-02T09:09:43;101460.38;;;1.39;100.00
13015;BME280;6573;57.696;11.950;2023-02-02T09:12:12;101461.16;;;1.57;100.00
13015;BME280;6573;57.696;11.950;2023-02-02T09:14:40;101443.19;;;1.41;100.00
13015;BME280;6573;57.696;11.950;2023-02-02T09:17:09;101475.38;;;1.46;100.00
13015;BME280;6573;57.696;11.950;2023-02-02T09:19:37;101467.44;;;1.43;100.00
13015;BME280;6573;57.696;11.950;2023-02-02T09:22:06;101474.53;;;1.47;100.00
13015;BME280;6573;57.696;11.950;2023-02-02T09:24:34;101491.88;;;1.48;100.00
13015;BME280;6573;57.696;11.950;2023-02-02T09:27:04;101470.00;;;1.41;100.00
13015;BME280;6573;57.696;11.950;2023-02-02T09:29:35;101502.63;;;1.57;100.00
13015;BME280;6573;57.696;11.950;2023-02-02T09:32:04;101500.03;;;1.57;100.00
13015;BME280;6573;57.696;11.950;2023-02-02T09:34:34;101505.31;;;1.58;100.00
13015;BME280;6573;57.696;11.950;2023-02-02T09:37:04;101525.31;;;1.61;100.00
13015;BME280;6573;57.696;11.950;2023-02-02T09:39:33;101519.44;;;1.65;100.00
13015;BME280;6573;57.696;11.950;2023-02-02T09:42:20;101516.41;;;1.75;100.00
13015;BME280;6573;57.696;11.950;2023-02-02T09:44:58;101524.59;;;1.84;100.00
13015;BME280;6573;57.696;11.950;2023-02-02T09:47:37;101525.00;;;1.93;100.00
13015;BME280;6573;57.696;11.950;2023-02-02T09:50:17;101499.06;;;1.74;100.00
13015;BME280;6573;57.696;11.950;2023-02-02T09:52:50;101534.00;;;1.82;100.00
13015;BME280;6573;57.696;11.950;2023-02-02T09:55:27;101534.16;;;1.85;100.00
13015;BME280;6573;57.696;11.950;2023-02-02T09:58:05;101550.81;;;1.90;100.00
13015;BME280;6573;57.696;11.950;2023-02-02T10:00:41;101550.94;;;1.93;100.00
13015;BME280;6573;57.696;11.950;2023-02-02T10:03:15;101546.28;;;2.05;100.00
13015;BME280;6573;57.696;11.950;2023-02-02T10:05:50;101529.06;;;2.07;100.00
13015;BME280;6573;57.696;11.950;2023-02-02T10:08:30;101519.91;;;1.96;100.00
13015;BME280;6573;57.696;11.950;2023-02-02T10:11:16;101551.47;;;2.05;100.00
13015;BME280;6573;57.696;11.950;2023-02-02T10:13:51;101559.25;;;2.05;100.00
13015;BME280;6573;57.696;11.950;2023-02-02T10:16:23;101562.09;;;2.11;100.00
13015;BME280;6573;57.696;11.950;2023-02-02T10:18:55;101555.81;;;3.55;100.00
13015;BME280;6573;57.696;11.950;2023-02-02T10:21:33;101558.22;;;5.29;100.00
13015;BME280;6573;57.696;11.950;2023-02-02T10:24:03;101560.63;;;4.94;100.00
13015;BME280;6573;57.696;11.950;2023-02-02T10:26:36;101569.19;;;3.42;100.00
13015;BME280;6573;57.696;11.950;2023-02-02T10:29:14;101565.91;;;2.60;100.00
13015;BME280;6573;57.696;11.950;2023-02-02T10:31:48;101574.66;;;2.42;100.00
13015;BME280;6573;57.696;11.950;2023-02-02T10:34:22;101580.75;;;2.42;100.00
13015;BME280;6573;57.696;11.950;2023-02-02T10:37:06;101583.16;;;2.38;100.00
13015;BME280;6573;57.696;11.950;2023-02-02T10:39:50;101595.94;;;2.33;100.00
13015;BME280;6573;57.696;11.950;2023-02-02T10:42:31;101596.19;;;2.39;100.00
13015;BME280;6573;57.696;11.950;2023-02-02T10:45:09;101603.19;;;2.40;100.00
13015;BME280;6573;57.696;11.950;2023-02-02T10:47:40;101601.53;;;2.42;100.00
13015;BME280;6573;57.696;11.950;2023-02-02T10:50:17;101597.56;;;2.50;100.00
13015;BME280;6573;57.696;11.950;2023-02-02T10:52:48;101596.72;;;2.51;100.00
13015;BME280;6573;57.696;11.950;2023-02-02T10:55:24;101612.28;;;2.51;100.00
13015;BME280;6573;57.696;11.950;2023-02-02T10:58:03;101607.38;;;2.57;100.00
13015;BME280;6573;57.696;11.950;2023-02-02T11:00:38;101616.34;;;2.66;100.00
13015;BME280;6573;57.696;11.950;2023-02-02T11:03:09;101620.34;;;2.57;100.00
13015;BME280;6573;57.696;11.950;2023-02-02T11:05:38;101621.31;;;2.59;100.00
13015;BME280;6573;57.696;11.950;2023-02-02T11:08:30;101630.16;;;2.65;100.00
13015;BME280;6573;57.696;11.950;2023-02-02T11:11:10;101632.56;;;2.81;100.00
13015;BME280;6573;57.696;11.950;2023-02-02T11:13:42;101626.06;;;2.90;100.00
13015;BME280;6573;57.696;11.950;2023-02-02T11:16:23;101629.66;;;2.94;100.00
13015;BME280;6573;57.696;11.950;2023-02-02T11:19:21;101631.53;;;2.98;100.00
13015;BME280;6573;57.696;11.950;2023-02-02T11:21:51;101623.88;;;3.01;100.00
13015;BME280;6573;57.696;11.950;2023-02-02T11:24:22;101626.72;;;3.07;100.00
13015;BME280;6573;57.696;11.950;2023-02-02T11:26:53;101627.31;;;3.00;100.00
13015;BME280;6573;57.696;11.950;2023-02-02T11:29:26;101621.41;;;3.04;100.00
13015;BME280;6573;57.696;11.950;2023-02-02T11:31:57;101618.22;;;3.33;100.00
13015;BME280;6573;57.696;11.950;2023-02-02T11:34:28;101611.59;;;3.40;100.00
13015;BME280;6573;57.696;11.950;2023-02-02T11:37:02;101610.44;;;3.33;100.00
13015;BME280;6573;57.696;11.950;2023-02-02T11:39:31;101605.38;;;3.36;100.00
13015;BME280;6573;57.696;11.950;2023-02-02T11:42:01;101608.09;;;3.39;100.00
13015;BME280;6573;57.696;11.950;2023-02-02T11:44:31;101612.44;;;3.40;100.00
13015;BME280;6573;57.696;11.950;2023-02-02T11:47:03;101620.06;;;3.36;100.00
13015;BME280;6573;57.696;11.950;2023-02-02T11:49:36;101610.22;;;3.27;100.00
13015;BME280;6573;57.696;11.950;2023-02-02T11:52:15;101615.28;;;3.24;100.00
13015;BME280;6573;57.696;11.950;2023-02-02T11:54:47;101587.41;;;3.20;100.00
13015;BME280;6573;57.696;11.950;2023-02-02T11:57:18;101616.53;;;3.34;100.00
13015;BME280;6573;57.696;11.950;2023-02-02T11:59:47;101629.19;;;3.47;100.00
13015;BME280;6573;57.696;11.950;2023-02-02T12:02:26;101624.75;;;3.44;100.00
13015;BME280;6573;57.696;11.950;2023-02-02T12:05:12;101639.75;;;3.51;100.00
13015;BME280;6573;57.696;11.950;2023-02-02T12:07:42;101640.94;;;3.59;100.00
13015;BME280;6573;57.696;11.950;2023-02-02T12:10:15;101631.13;;;3.74;100.00
13015;BME280;6573;57.696;11.950;2023-02-02T12:12:53;101629.34;;;3.73;100.00
13015;BME280;6573;57.696;11.950;2023-02-02T12:15:35;101636.34;;;3.74;100.00
13015;BME280;6573;57.696;11.950;2023-02-02T12:18:22;101630.88;;;3.68;100.00
13015;BME280;6573;57.696;11.950;2023-02-02T12:20:58;101619.59;;;3.68;100.00
13015;BME280;6573;57.696;11.950;2023-02-02T12:23:40;101629.47;;;3.76;100.00
13015;BME280;6573;57.696;11.950;2023-02-02T12:26:19;101615.41;;;3.71;100.00
13015;BME280;6573;57.696;11.950;2023-02-02T12:29:13;101630.00;;;3.68;100.00
13015;BME280;6573;57.696;11.950;2023-02-02T12:32:21;101629.22;;;3.70;100.00
13015;BME280;6573;57.696;11.950;2023-02-02T12:35:04;101635.47;;;3.75;100.00
13015;BME280;6573;57.696;11.950;2023-02-02T12:37:45;101628.75;;;3.80;100.00
13015;BME280;6573;57.696;11.950;2023-02-02T12:40:28;101636.88;;;3.89;100.00
13015;BME280;6573;57.696;11.950;2023-02-02T12:43:10;101622.34;;;3.72;100.00
13015;BME280;6573;57.696;11.950;2023-02-02T12:45:48;101638.34;;;3.81;100.00
13015;BME280;6573;57.696;11.950;2023-02-02T12:48:34;101639.31;;;3.85;100.00
13015;BME280;6573;57.696;11.950;2023-02-02T12:51:27;101631.22;;;3.77;100.00
13015;BME280;6573;57.696;11.950;2023-02-02T12:54:19;101622.97;;;3.65;100.00
13015;BME280;6573;57.696;11.950;2023-02-02T12:57:07;101649.88;;;3.89;100.00
13015;BME280;6573;57.696;11.950;2023-02-02T13:02:43;101649.41;;;4.00;100.00
13015;BME280;6573;57.696;11.950;2023-02-02T13:05:27;101650.44;;;4.05;100.00
13015;BME280;6573;57.696;11.950;2023-02-02T13:08:03;101652.84;;;3.99;100.00
13015;BME280;6573;57.696;11.950;2023-02-02T13:10:36;101658.38;;;4.08;100.00
13015;BME280;6573;57.696;11.950;2023-02-02T13:13:09;101661.84;;;4.07;100.00
13015;BME280;6573;57.696;11.950;2023-02-02T13:15:42;101669.03;;;4.14;100.00
13015;BME280;6573;57.696;11.950;2023-02-02T13:18:14;101678.44;;;4.10;100.00
13015;BME280;6573;57.696;11.950;2023-02-02T13:20:48;101672.13;;;4.04;100.00
13015;BME280;6573;57.696;11.950;2023-02-02T13:23:23;101682.31;;;3.98;100.00
13015;BME280;6573;57.696;11.950;2023-02-02T13:25:59;101695.47;;;4.02;100.00
13015;BME280;6573;57.696;11.950;2023-02-02T13:28:37;101697.22;;;4.02;100.00